createdAt,value
2023-02-04T00:00:24.544Z,98320.08
2023-02-04T00:04:43.563Z,98340.80
2023-02-04T00:08:41.556Z,98346.52
2023-02-04T00:12:40.858Z,98356.69
2023-02-04T00:16:38.554Z,98363.82
2023-02-04T00:20:37.500Z,98373.70
2023-02-04T00:24:35.536Z,98374.73
2023-02-04T00:28:33.556Z,98368.90
2023-02-04T00:32:32.558Z,98361.49
2023-02-04T00:36:30.540Z,98364.46
2023-02-04T00:40:28.861Z,98360.84
2023-02-04T00:44:26.599Z,98364.19
2023-02-04T00:48:26.513Z,98363.86
2023-02-04T00:52:24.558Z,98367.40
2023-02-04T00:56:24.513Z,98376.77
2023-02-04T01:00:22.462Z,98388.12
2023-02-04T01:04:21.457Z,98395.38
2023-02-04T01:08:19.504Z,98405.45
2023-02-04T01:12:18.451Z,98408.21
2023-02-04T01:16:16.485Z,98413.65
2023-02-04T01:20:14.463Z,98419.89
2023-02-04T01:24:19.426Z,98428.98
2023-02-04T01:28:36.440Z,98434.63
2023-02-04T01:32:36.429Z,98448.23
2023-02-04T01:36:34.559Z,98455.25
2023-02-04T01:40:32.722Z,98471.98
2023-02-04T01:44:30.408Z,98478.80
2023-02-04T01:48:28.399Z,98490.23
2023-02-04T01:52:26.420Z,98502.39
2023-02-04T01:56:35.383Z,98506.82
2023-02-04T02:00:46.521Z,98514.31
2023-02-04T02:04:47.382Z,98521.97
2023-02-04T02:08:45.394Z,98532.92
2023-02-04T02:12:43.490Z,98532.73
2023-02-04T02:16:41.600Z,98535.06
2023-02-04T02:20:41.350Z,98545.19
2023-02-04T02:24:42.342Z,98551.35
2023-02-04T02:28:42.455Z,98566.67
2023-02-04T02:32:40.350Z,98570.84
2023-02-04T02:36:38.312Z,98583.65
2023-02-04T02:40:36.500Z,98602.36
2023-02-04T02:44:36.324Z,98608.89
2023-02-04T02:48:36.341Z,98626.23
2023-02-04T02:52:34.292Z,98634.07
2023-02-04T02:56:35.298Z,98657.48
2023-02-04T03:00:42.297Z,98659.98
2023-02-04T03:04:46.381Z,98675.91
2023-02-04T03:08:47.286Z,98691.55
2023-02-04T03:12:45.305Z,98707.90
2023-02-04T03:16:45.338Z,98723.09
2023-02-04T03:20:47.305Z,98728.23
2023-02-04T03:24:45.288Z,98745.83
2023-02-04T03:28:43.266Z,98755.26
2023-02-04T03:32:41.251Z,98763.30
2023-02-04T03:36:39.267Z,98772.41
2023-02-04T03:40:37.236Z,98775.23
2023-02-04T03:44:35.305Z,98802.53
2023-02-04T03:48:33.196Z,98818.98
2023-02-04T03:52:31.340Z,98832.13
2023-02-04T03:56:29.245Z,98853.73
2023-02-04T04:00:28.378Z,98863.52
2023-02-04T04:04:26.343Z,98882.09
2023-02-04T04:08:26.336Z,98884.52
2023-02-04T04:12:24.207Z,98905.23
2023-02-04T04:16:22.245Z,98917.38
2023-02-04T04:20:20.144Z,98934.56
2023-02-04T04:24:18.224Z,98946.14
2023-02-04T04:28:16.235Z,98961.73
2023-02-04T04:32:14.200Z,98974.31
2023-02-04T04:36:12.179Z,98993.64
2023-02-04T04:40:10.154Z,99002.78
2023-02-04T04:44:08.171Z,99025.63
2023-02-04T04:48:07.232Z,99035.13
2023-02-04T04:52:06.143Z,99065.09
2023-02-04T04:56:04.137Z,99074.08
2023-02-04T05:00:02.237Z,99092.89
2023-02-04T05:04:00.288Z,99112.41
2023-02-04T05:07:58.102Z,99125.59
2023-02-04T05:11:56.110Z,99145.80
2023-02-04T05:15:54.092Z,99163.27
2023-02-04T05:19:52.109Z,99179.02
2023-02-04T05:23:50.120Z,99191.00
2023-02-04T05:27:48.117Z,99206.45
2023-02-04T05:31:46.192Z,99217.99
2023-02-04T05:35:48.628Z,99240.88
2023-02-04T05:39:49.162Z,99251.56
2023-02-04T05:43:47.053Z,99256.06
2023-02-04T05:47:46.155Z,99270.06
2023-02-04T05:51:44.123Z,99282.61
2023-02-04T05:55:42.026Z,99298.55
2023-02-04T05:59:40.073Z,99318.02
2023-02-04T06:03:40.148Z,99332.14
2023-02-04T06:07:39.028Z,99340.27
2023-02-04T06:11:36.993Z,99362.55
2023-02-04T06:15:35.020Z,99378.33
2023-02-04T06:19:33.007Z,99391.84
2023-02-04T06:23:30.985Z,99405.85
2023-02-04T06:27:30.998Z,99416.92
2023-02-04T06:31:29.077Z,99433.36
2023-02-04T06:35:33.970Z,99446.33
2023-02-04T06:39:32.000Z,99464.64
2023-02-04T06:43:31.970Z,99478.56
2023-02-04T06:47:29.967Z,99500.30
2023-02-04T06:51:28.045Z,99511.85
2023-02-04T06:55:26.112Z,99521.23
2023-02-04T06:59:24.957Z,99528.17
2023-02-04T07:03:22.995Z,99542.80
2023-02-04T07:07:20.898Z,99558.52
2023-02-04T07:11:20.079Z,99573.09
2023-02-04T07:15:17.952Z,99585.88
2023-02-04T07:19:16.137Z,99600.23
2023-02-04T07:23:22.925Z,99602.83
2023-02-04T07:27:20.909Z,99616.61
2023-02-04T07:31:19.101Z,99633.54
2023-02-04T07:35:17.986Z,99645.12
2023-02-04T07:39:15.882Z,99653.26
2023-02-04T07:43:14.960Z,99665.76
2023-02-04T07:47:12.878Z,99682.40
2023-02-04T07:51:10.912Z,99693.23
2023-02-04T07:55:08.885Z,99700.73
2023-02-04T07:59:06.850Z,99717.48
2023-02-04T08:03:06.988Z,99726.14
2023-02-04T08:07:04.906Z,99729.90
2023-02-04T08:11:02.958Z,99730.88
2023-02-04T08:15:00.864Z,99751.66
2023-02-04T08:18:58.809Z,99754.89
2023-02-04T08:22:56.885Z,99752.03
2023-02-04T08:26:55.804Z,99767.29
2023-02-04T08:30:53.893Z,99772.59
2023-02-04T08:34:51.781Z,99778.77
2023-02-04T08:38:51.808Z,99795.33
2023-02-04T08:42:51.767Z,99796.40
2023-02-04T08:46:50.871Z,99802.70
2023-02-04T08:50:48.788Z,99804.15
2023-02-04T08:54:49.771Z,99816.45
2023-02-04T08:58:47.829Z,99832.42
2023-02-04T09:02:45.769Z,99839.96
2023-02-04T09:06:43.775Z,99844.34
2023-02-04T09:10:41.974Z,99851.73
2023-02-04T09:14:39.755Z,99857.50
2023-02-04T09:18:41.024Z,99867.58
2023-02-04T09:22:40.737Z,99873.27
2023-02-04T09:26:38.743Z,99880.19
2023-02-04T09:30:36.743Z,99871.86
2023-02-04T09:34:34.719Z,99874.98
2023-02-04T09:38:32.706Z,99875.58
2023-02-04T09:42:30.756Z,99881.80
2023-02-04T09:46:36.677Z,99906.20
2023-02-04T09:50:39.721Z,99913.02
2023-02-04T09:54:39.727Z,99920.91
2023-02-04T09:58:38.759Z,99919.18
2023-02-04T10:02:41.698Z,99931.55
2023-02-04T10:06:39.710Z,99933.48
2023-02-04T10:10:39.651Z,99939.51
2023-02-04T10:14:39.694Z,99948.18
2023-02-04T10:18:43.605Z,99952.04
2023-02-04T10:22:41.627Z,99958.98
2023-02-04T10:26:43.591Z,99968.90
2023-02-04T10:30:43.825Z,99970.49
2023-02-04T10:34:49.694Z,99983.98
2023-02-04T10:38:47.674Z,99979.48
2023-02-04T10:42:46.680Z,99991.79
2023-02-04T10:46:46.652Z,99986.67
2023-02-04T10:50:44.613Z,99995.84
2023-02-04T10:54:52.622Z,99986.05
2023-02-04T10:58:53.652Z,99996.91
2023-02-04T11:03:18.644Z,100003.02
2023-02-04T11:07:09.774Z,100002.69
2023-02-04T11:11:16.648Z,100011.41
2023-02-04T11:15:14.579Z,100023.60
2023-02-04T11:19:16.740Z,100026.86
2023-02-04T11:23:49.617Z,100030.20
2023-02-04T11:27:56.750Z,100050.19
2023-02-04T11:31:58.713Z,100049.06
2023-02-04T11:36:15.553Z,100043.06
2023-02-04T11:40:14.638Z,100058.08
2023-02-04T11:44:12.524Z,100054.55
2023-02-04T11:48:13.547Z,100047.86
2023-02-04T11:52:22.522Z,100067.41
2023-02-04T11:56:20.498Z,100060.27
2023-02-04T12:00:21.521Z,100057.83
2023-02-04T12:04:22.459Z,100065.91
2023-02-04T12:08:45.494Z,100062.77
2023-02-04T12:12:45.509Z,100065.92
2023-02-04T12:16:43.584Z,100067.07
2023-02-04T12:20:43.468Z,100076.55
2023-02-04T12:24:41.541Z,100075.30
2023-02-04T12:28:40.481Z,100068.24
2023-02-04T12:32:39.626Z,100080.95
2023-02-04T12:36:37.502Z,100075.27
2023-02-04T12:40:36.506Z,100085.02
2023-02-04T12:44:34.483Z,100080.40
2023-02-04T12:48:32.531Z,100086.47
2023-02-04T12:52:31.464Z,100092.23
2023-02-04T12:56:30.429Z,100094.85
2023-02-04T13:00:30.433Z,100095.65
2023-02-04T13:04:28.421Z,100103.02
2023-02-04T13:08:27.390Z,100117.52
2023-02-04T13:12:25.412Z,100116.05
2023-02-04T13:16:29.454Z,100120.16
2023-02-04T13:20:27.557Z,100127.52
2023-02-04T13:24:25.438Z,100129.27
2023-02-04T13:28:25.510Z,100137.64
2023-02-04T13:32:23.549Z,100140.15
2023-02-04T13:36:23.477Z,100145.39
2023-02-04T13:40:22.326Z,100144.05
2023-02-04T13:44:20.450Z,100145.80
2023-02-04T13:48:19.327Z,100159.16
2023-02-04T13:52:18.494Z,100161.83
2023-02-04T13:56:18.381Z,100167.23
2023-02-04T14:00:20.363Z,100172.73
2023-02-04T14:04:18.374Z,100180.54
2023-02-04T14:08:17.440Z,100188.14
2023-02-04T14:12:15.315Z,100190.05
2023-02-04T14:16:15.476Z,100193.91
2023-02-04T14:20:16.337Z,100198.73
2023-02-04T14:24:16.381Z,100192.89
2023-02-04T14:28:14.345Z,100209.65
2023-02-04T14:32:12.375Z,100218.62
2023-02-04T14:36:10.358Z,100221.58
2023-02-04T14:40:10.296Z,100223.63
2023-02-04T14:44:10.297Z,100228.00
2023-02-04T14:48:11.224Z,100233.72
2023-02-04T14:52:12.609Z,100240.70
2023-02-04T14:56:12.332Z,100239.98
2023-02-04T15:00:10.260Z,100249.09
2023-02-04T15:04:08.706Z,100262.09
2023-02-04T15:08:07.304Z,100267.13
2023-02-04T15:11:44.906Z,100269.54
2023-02-04T15:15:11.459Z,100274.99
2023-02-04T15:18:40.541Z,100279.00
2023-02-04T15:22:04.726Z,100283.67
2023-02-04T15:25:28.756Z,100282.34
2023-02-04T15:28:53.298Z,100292.43
2023-02-04T15:32:17.484Z,100294.57
2023-02-04T15:35:41.364Z,100291.46
2023-02-04T15:39:06.818Z,100299.11
2023-02-04T15:42:30.861Z,100307.21
2023-02-04T15:45:57.268Z,100312.00
2023-02-04T15:49:21.998Z,100319.91
2023-02-04T15:52:46.721Z,100325.83
2023-02-04T15:56:11.106Z,100333.12
2023-02-04T15:59:35.256Z,100337.52
2023-02-04T16:02:59.314Z,100339.31
2023-02-04T16:06:32.184Z,100348.51
2023-02-04T16:09:56.351Z,100355.79
2023-02-04T16:13:22.683Z,100361.09
2023-02-04T16:16:46.780Z,100368.96
2023-02-04T16:20:13.247Z,100377.05
2023-02-04T16:23:37.098Z,100369.80
2023-02-04T16:27:01.178Z,100376.30
2023-02-04T16:30:25.147Z,100381.20
2023-02-04T16:33:49.028Z,100377.40
2023-02-04T16:37:16.189Z,100379.90
2023-02-04T16:40:40.245Z,100385.66
2023-02-04T16:44:04.144Z,100390.39
2023-02-04T16:47:28.131Z,100394.39
2023-02-04T16:50:53.952Z,100399.77
2023-02-04T16:54:18.234Z,100402.14
2023-02-04T16:57:46.797Z,100405.42
2023-02-04T17:01:11.232Z,100411.10
2023-02-04T17:04:37.883Z,100413.60
2023-02-04T17:08:01.795Z,100413.80
2023-02-04T17:11:31.848Z,100416.48
2023-02-04T17:14:56.295Z,100413.83
2023-02-04T17:18:22.664Z,100417.22
2023-02-04T17:21:46.910Z,100412.74
2023-02-04T17:25:10.975Z,100418.69
2023-02-04T17:28:35.359Z,100422.90
2023-02-04T17:31:59.270Z,100424.10
2023-02-04T17:35:26.436Z,100432.98
2023-02-04T17:38:50.593Z,100437.08
2023-02-04T17:42:17.537Z,100446.30
2023-02-04T17:45:44.596Z,100450.30
2023-02-04T17:49:09.693Z,100453.06
2023-02-04T17:52:35.542Z,100454.56
2023-02-04T17:55:59.537Z,100458.36
2023-02-04T17:59:23.976Z,100462.91
2023-02-04T18:02:49.819Z,100472.02
2023-02-04T18:06:19.424Z,100469.49
2023-02-04T18:09:43.351Z,100476.27
2023-02-04T18:13:36.742Z,100483.45
2023-02-04T18:17:01.901Z,100489.95
2023-02-04T18:20:32.646Z,100491.35
2023-02-04T18:24:19.040Z,100491.67
2023-02-04T18:27:43.150Z,100495.04
2023-02-04T18:31:26.170Z,100502.67
2023-02-04T18:34:57.522Z,100500.30
2023-02-04T18:38:32.405Z,100507.26
2023-02-04T18:41:57.562Z,100510.71
2023-02-04T18:45:28.567Z,100510.48
2023-02-04T18:49:06.152Z,100515.13
2023-02-04T18:52:37.904Z,100516.38
2023-02-04T18:56:02.693Z,100517.74
2023-02-04T18:59:29.056Z,100520.16
2023-02-04T19:03:07.670Z,100520.91
2023-02-04T19:06:41.379Z,100528.39
2023-02-04T19:10:27.989Z,100536.96
2023-02-04T19:13:58.392Z,100528.31
2023-02-04T19:17:37.348Z,100526.63
2023-02-04T19:21:20.517Z,100523.97
2023-02-04T19:24:44.553Z,100535.98
2023-02-04T19:28:25.881Z,100537.38
2023-02-04T19:31:57.131Z,100546.27
2023-02-04T19:35:23.611Z,100540.27
2023-02-04T19:38:53.210Z,100544.91
2023-02-04T19:42:26.224Z,100548.58
2023-02-04T19:45:52.327Z,100550.92
2023-02-04T19:49:26.742Z,100556.59
2023-02-04T19:52:56.216Z,100564.80
2023-02-04T19:56:40.933Z,100563.98
2023-02-04T20:00:36.100Z,100564.61
2023-02-04T20:04:04.337Z,100563.19
2023-02-04T20:07:29.971Z,100566.71
2023-02-04T20:10:54.892Z,100571.78
2023-02-04T20:14:24.022Z,100573.45
2023-02-04T20:17:52.262Z,100574.40
2023-02-04T20:21:16.689Z,100576.51
2023-02-04T20:24:56.516Z,100575.43
2023-02-04T20:28:23.569Z,100571.64
2023-02-04T20:31:50.286Z,100577.20
2023-02-04T20:35:14.375Z,100578.98
2023-02-04T20:38:38.583Z,100586.39
2023-02-04T20:42:44.205Z,100585.38
2023-02-04T20:46:08.758Z,100582.27
2023-02-04T20:49:42.906Z,100580.69
2023-02-04T20:53:17.260Z,100591.03
2023-02-04T20:56:44.000Z,100597.00
2023-02-04T21:00:15.435Z,100594.68
2023-02-04T21:03:40.126Z,100595.89
2023-02-04T21:07:16.813Z,100596.86
2023-02-04T21:10:40.728Z,100604.05
2023-02-04T21:14:04.850Z,100606.41
2023-02-04T21:17:28.773Z,100609.05
2023-02-04T21:20:53.006Z,100608.83
2023-02-04T21:24:17.466Z,100612.94
2023-02-04T21:27:41.429Z,100616.63
2023-02-04T21:31:05.419Z,100622.21
2023-02-04T21:34:29.659Z,100621.22
2023-02-04T21:37:54.895Z,100630.27
2023-02-04T21:41:20.773Z,100632.66
2023-02-04T21:44:45.069Z,100631.83
2023-02-04T21:48:09.251Z,100634.00
2023-02-04T21:51:33.233Z,100636.06
2023-02-04T21:55:00.228Z,100636.06
2023-02-04T21:58:24.271Z,100636.06
2023-02-04T22:01:49.594Z,100643.27
2023-02-04T22:05:14.858Z,100648.71
2023-02-04T22:08:38.772Z,100651.20
2023-02-04T22:12:06.030Z,100658.80
2023-02-04T22:15:32.202Z,100661.54
2023-02-04T22:19:02.915Z,100666.33
2023-02-04T22:22:26.792Z,100671.09
2023-02-04T22:25:51.082Z,100671.88
2023-02-04T22:29:19.425Z,100678.55
2023-02-04T22:32:43.700Z,100685.59
2023-02-04T22:36:07.954Z,100682.23
2023-02-04T22:39:32.370Z,100688.11
2023-02-04T22:42:56.205Z,100685.63
2023-02-04T22:46:20.149Z,100692.81
2023-02-04T22:49:46.744Z,100690.89
2023-02-04T22:53:10.625Z,100694.98
2023-02-04T22:56:37.764Z,100700.77
2023-02-04T23:00:01.612Z,100701.90
2023-02-04T23:03:25.928Z,100703.08
2023-02-04T23:06:53.427Z,100706.15
2023-02-04T23:10:17.481Z,100703.21
2023-02-04T23:13:41.336Z,100705.26
2023-02-04T23:17:07.039Z,100705.59
2023-02-04T23:20:31.261Z,100715.31
2023-02-04T23:23:55.606Z,100715.27
2023-02-04T23:27:19.577Z,100720.64
2023-02-04T23:30:46.531Z,100720.00
2023-02-04T23:34:10.479Z,100726.09
2023-02-04T23:37:35.971Z,100730.86
2023-02-04T23:41:01.411Z,100729.20
2023-02-04T23:44:25.556Z,100729.02
2023-02-04T23:48:09.475Z,100734.38
2023-02-04T23:52:08.552Z,100736.80
2023-02-04T23:56:06.520Z,100739.69
